createdAt,value
2023-05-22T00:02:14.953Z,9.20
2023-05-22T00:07:17.069Z,9.43
2023-05-22T00:12:17.766Z,8.73
2023-05-22T00:17:18.660Z,9.80
2023-05-22T00:22:21.040Z,9.23
2023-05-22T00:27:21.868Z,8.75
2023-05-22T00:32:22.726Z,9.32
2023-05-22T00:37:25.470Z,9.18
2023-05-22T00:42:26.405Z,8.60
2023-05-22T00:47:27.222Z,9.50
2023-05-22T00:52:29.320Z,9.57
2023-05-22T00:57:30.077Z,9.07
2023-05-22T01:02:33.047Z,9.00
2023-05-22T01:07:37.690Z,9.02
2023-05-22T01:12:48.818Z,9.48
2023-05-22T01:17:59.240Z,10.30
2023-05-22T01:23:54.272Z,10.30
2023-05-22T01:29:30.273Z,9.27
2023-05-22T01:34:36.537Z,9.70
2023-05-22T01:39:38.256Z,10.02
2023-05-22T01:44:38.988Z,9.05
2023-05-22T01:49:41.107Z,10.45
2023-05-22T01:54:47.049Z,9.18
2023-05-22T01:59:50.764Z,10.07
2023-05-22T02:04:59.837Z,10.70
2023-05-22T02:10:02.948Z,10.30
2023-05-22T02:15:06.957Z,10.35
2023-05-22T02:20:14.374Z,10.43
2023-05-22T02:25:18.063Z,10.02
2023-05-22T02:30:19.544Z,10.40
2023-05-22T02:35:25.027Z,10.30
2023-05-22T02:40:26.237Z,10.95
2023-05-22T02:45:27.173Z,12.02
2023-05-22T02:50:29.215Z,11.13
2023-05-22T02:55:29.990Z,10.65
2023-05-22T03:00:31.260Z,10.82
2023-05-22T03:05:33.445Z,11.10
2023-05-22T03:10:34.131Z,11.05
2023-05-22T03:15:35.054Z,10.82
2023-05-22T03:20:45.504Z,10.93
2023-05-22T03:25:46.305Z,11.23
2023-05-22T03:30:47.561Z,11.13
2023-05-22T03:35:56.503Z,10.77
2023-05-22T03:40:57.220Z,11.00
2023-05-22T03:45:59.350Z,10.50
2023-05-22T03:51:02.750Z,11.05
2023-05-22T03:56:03.908Z,10.05
2023-05-22T04:01:05.382Z,10.43
2023-05-22T04:06:07.860Z,11.32
2023-05-22T04:11:11.122Z,10.18
2023-05-22T04:16:11.874Z,10.73
2023-05-22T04:21:17.526Z,8.90
2023-05-22T04:26:20.932Z,9.00
2023-05-22T04:31:23.091Z,9.00
2023-05-22T04:36:26.678Z,8.60
2023-05-22T04:41:27.639Z,8.80
2023-05-22T04:46:28.740Z,8.20
2023-05-22T04:51:32.299Z,8.38
2023-05-22T04:56:36.774Z,8.73
2023-05-22T05:01:38.750Z,8.65
2023-05-22T05:06:40.968Z,7.80
2023-05-22T05:11:41.737Z,8.07
2023-05-22T05:16:43.319Z,8.13
2023-05-22T05:21:45.923Z,7.40
2023-05-22T05:26:47.062Z,7.80
2023-05-22T05:31:50.205Z,7.30
2023-05-22T05:37:06.626Z,7.05
2023-05-22T05:42:07.658Z,7.68
2023-05-22T05:47:08.559Z,7.20
2023-05-22T05:52:11.042Z,7.30
2023-05-22T05:57:11.752Z,6.65
2023-05-22T06:02:12.821Z,6.75
2023-05-22T06:07:15.557Z,6.63
2023-05-22T06:12:21.367Z,6.75
2023-05-22T06:17:22.281Z,6.32
2023-05-22T06:22:25.716Z,6.38
2023-05-22T06:27:27.698Z,6.20
2023-05-22T06:32:29.442Z,6.15
2023-05-22T06:37:33.050Z,6.55
2023-05-22T06:42:34.799Z,6.15
2023-05-22T06:47:55.825Z,5.90
2023-05-22T06:52:58.474Z,6.15
2023-05-22T06:57:59.804Z,5.63
2023-05-22T07:03:02.015Z,5.85
2023-05-22T07:08:08.551Z,6.20
2023-05-22T07:13:09.459Z,5.20
2023-05-22T07:18:10.883Z,5.50
2023-05-22T07:23:15.346Z,4.57
2023-05-22T07:28:16.988Z,4.22
2023-05-22T07:33:38.920Z,3.92
2023-05-22T07:38:41.255Z,3.75
2023-05-22T07:43:41.973Z,4.10
2023-05-22T07:48:44.881Z,4.07
2023-05-22T07:53:47.215Z,3.67
2023-05-22T07:58:48.974Z,3.75
2023-05-22T08:03:53.097Z,3.60
2023-05-22T08:08:55.332Z,3.42
2023-05-22T08:13:58.155Z,3.65
2023-05-22T08:18:58.971Z,4.00
2023-05-22T08:24:01.276Z,3.38
2023-05-22T08:29:02.695Z,3.60
2023-05-22T08:34:04.715Z,3.08
2023-05-22T08:39:07.479Z,3.58
2023-05-22T08:44:08.357Z,3.20
2023-05-22T08:49:10.049Z,2.80
2023-05-22T08:54:12.063Z,3.00
2023-05-22T08:59:13.072Z,3.03
2023-05-22T09:04:14.633Z,3.28
2023-05-22T09:09:16.650Z,3.50
2023-05-22T09:14:17.345Z,3.63
2023-05-22T09:19:18.166Z,3.88
2023-05-22T09:24:20.355Z,4.00
2023-05-22T09:29:21.334Z,3.85
2023-05-22T09:34:22.594Z,4.00
2023-05-22T09:39:24.676Z,3.90
2023-05-22T09:44:26.911Z,3.95
2023-05-22T09:49:27.984Z,3.97
2023-05-22T09:54:31.276Z,4.03
2023-05-22T09:59:34.332Z,3.47
2023-05-22T10:04:35.807Z,3.28
2023-05-22T10:09:40.788Z,3.55
2023-05-22T10:14:41.777Z,3.88
2023-05-22T10:19:44.709Z,3.28
2023-05-22T10:24:49.414Z,3.67
2023-05-22T10:29:57.396Z,3.05
2023-05-22T10:35:09.903Z,3.65
2023-05-22T10:40:15.641Z,3.47
2023-05-22T10:45:17.626Z,3.03
2023-05-22T10:50:19.132Z,3.20
2023-05-22T10:55:23.920Z,3.42
2023-05-22T11:00:25.675Z,3.20
2023-05-22T11:05:36.407Z,3.10
2023-05-22T11:10:54.876Z,2.65
2023-05-22T11:15:57.805Z,2.63
2023-05-22T11:21:00.843Z,2.75
2023-05-22T11:26:18.745Z,3.10
2023-05-22T11:31:19.740Z,3.10
2023-05-22T11:36:21.404Z,2.90
2023-05-22T11:41:23.763Z,3.13
2023-05-22T11:46:25.483Z,2.88
2023-05-22T11:51:26.495Z,3.58
2023-05-22T11:56:30.901Z,3.10
2023-05-22T12:01:31.660Z,3.15
2023-05-22T12:06:33.508Z,2.92
2023-05-22T12:11:37.692Z,3.95
2023-05-22T12:16:38.598Z,3.20
2023-05-22T12:21:41.009Z,3.17
2023-05-22T12:26:50.933Z,3.13
2023-05-22T12:31:52.544Z,2.95
2023-05-22T12:36:53.278Z,2.90
2023-05-22T12:41:55.517Z,3.40
2023-05-22T12:46:56.240Z,2.88
2023-05-22T12:51:57.144Z,3.35
2023-05-22T12:56:59.182Z,3.47
2023-05-22T13:02:02.212Z,2.90
2023-05-22T13:07:03.185Z,3.13
2023-05-22T13:12:06.444Z,3.00
2023-05-22T13:17:07.631Z,3.63
2023-05-22T13:22:08.944Z,3.30
2023-05-22T13:27:11.120Z,3.03
2023-05-22T13:32:13.097Z,2.90
2023-05-22T13:37:13.852Z,3.35
2023-05-22T13:42:16.219Z,3.15
2023-05-22T13:47:17.059Z,3.38
2023-05-22T13:52:18.127Z,3.25
2023-05-22T13:57:20.306Z,3.15
2023-05-22T14:02:21.351Z,3.22
2023-05-22T14:07:22.187Z,2.90
2023-05-22T14:12:24.197Z,2.83
2023-05-22T14:17:24.936Z,3.88
2023-05-22T14:22:26.863Z,3.00
2023-05-22T14:27:28.915Z,2.90
2023-05-22T14:32:29.711Z,2.92
2023-05-22T14:37:30.653Z,3.10
2023-05-22T14:42:32.678Z,3.00
2023-05-22T14:47:33.379Z,3.15
2023-05-22T14:52:34.043Z,4.18
2023-05-22T14:57:36.052Z,3.83
2023-05-22T15:02:37.083Z,2.75
2023-05-22T15:07:44.536Z,2.65
2023-05-22T15:12:47.396Z,3.55
2023-05-22T15:17:50.596Z,3.25
2023-05-22T15:22:51.426Z,2.90
2023-05-22T15:27:53.492Z,3.28
2023-05-22T15:32:54.298Z,2.70
2023-05-22T15:37:56.989Z,2.80
2023-05-22T15:43:01.805Z,3.10
2023-05-22T15:48:02.803Z,3.60
2023-05-22T15:53:03.649Z,2.65
2023-05-22T15:58:07.869Z,3.38
2023-05-22T16:03:09.823Z,2.83
2023-05-22T16:08:10.989Z,3.00
2023-05-22T16:13:13.046Z,3.42
2023-05-22T16:18:13.989Z,2.63
2023-05-22T16:23:14.682Z,3.08
2023-05-22T16:28:17.148Z,2.70
2023-05-22T16:33:20.587Z,3.38
2023-05-22T16:38:21.273Z,4.30
2023-05-22T16:43:23.297Z,3.58
2023-05-22T16:48:24.036Z,3.45
2023-05-22T16:53:24.837Z,9.68
2023-05-22T16:58:27.355Z,35.33
2023-05-22T17:03:28.452Z,4.80
2023-05-22T17:08:29.588Z,5.10
2023-05-22T17:13:31.725Z,11.88
2023-05-22T17:18:32.481Z,4.93
2023-05-22T17:23:36.964Z,7.25
2023-05-22T17:28:39.035Z,7.97
2023-05-22T17:33:39.876Z,9.18
2023-05-22T17:39:06.330Z,7.10
2023-05-22T17:44:08.393Z,5.78
2023-05-22T17:49:09.184Z,6.97
2023-05-22T17:54:10.109Z,11.05
2023-05-22T17:59:12.215Z,7.65
2023-05-22T18:04:12.912Z,5.85
2023-05-22T18:09:13.746Z,8.75
2023-05-22T18:14:15.889Z,9.30
2023-05-22T18:19:16.828Z,11.35
2023-05-22T18:24:17.578Z,11.95
2023-05-22T18:29:19.880Z,6.70
2023-05-22T18:34:20.605Z,9.88
2023-05-22T18:39:21.502Z,7.93
2023-05-22T18:44:24.170Z,11.77
2023-05-22T18:49:24.888Z,11.98
2023-05-22T18:54:26.091Z,9.50
2023-05-22T18:59:28.177Z,5.45
2023-05-22T19:04:29.124Z,11.80
2023-05-22T19:09:29.954Z,7.35
2023-05-22T19:14:32.158Z,6.30
2023-05-22T19:19:33.292Z,7.25
2023-05-22T19:24:34.179Z,5.95
2023-05-22T19:29:36.234Z,7.75
2023-05-22T19:34:36.979Z,8.43
2023-05-22T19:39:37.911Z,6.05
2023-05-22T19:44:39.940Z,5.70
2023-05-22T19:49:40.719Z,7.50
2023-05-22T19:54:41.448Z,4.55
2023-05-22T19:59:43.489Z,4.93
2023-05-22T20:04:44.630Z,5.82
2023-05-22T20:09:45.371Z,4.13
2023-05-22T20:14:47.407Z,5.28
2023-05-22T20:19:48.145Z,3.40
2023-05-22T20:24:48.907Z,3.42
2023-05-22T20:29:51.218Z,3.60
2023-05-22T20:34:52.421Z,3.42
2023-05-22T20:39:53.189Z,2.95
2023-05-22T20:44:55.345Z,3.80
2023-05-22T20:49:56.073Z,3.53
2023-05-22T20:54:56.983Z,3.25
2023-05-22T20:59:59.402Z,3.95
2023-05-22T21:05:00.196Z,3.53
2023-05-22T21:10:00.907Z,3.80
2023-05-22T21:15:02.939Z,4.32
2023-05-22T21:20:05.711Z,4.60
2023-05-22T21:25:07.483Z,4.53
2023-05-22T21:30:13.094Z,4.45
2023-05-22T21:35:13.869Z,4.45
2023-05-22T21:40:14.737Z,4.15
2023-05-22T21:45:16.909Z,3.78
2023-05-22T21:50:17.752Z,3.22
2023-05-22T21:55:18.536Z,3.83
2023-05-22T22:00:20.797Z,3.95
2023-05-22T22:05:21.648Z,3.72
2023-05-22T22:10:22.484Z,3.50
2023-05-22T22:15:24.701Z,3.38
2023-05-22T22:20:39.496Z,3.90
2023-05-22T22:25:44.660Z,3.80
2023-05-22T22:30:47.874Z,3.63
2023-05-22T22:35:48.777Z,4.07
2023-05-22T22:40:49.474Z,3.60
2023-05-22T22:45:51.569Z,4.05
2023-05-22T22:50:52.972Z,3.40
2023-05-22T22:55:56.910Z,4.10
2023-05-22T23:00:59.082Z,4.03
2023-05-22T23:05:59.745Z,3.95
2023-05-22T23:11:00.521Z,4.55
2023-05-22T23:16:02.515Z,4.03
2023-05-22T23:21:03.219Z,3.65
2023-05-22T23:26:03.891Z,3.97
2023-05-22T23:31:06.146Z,3.58
2023-05-22T23:36:07.128Z,3.55
2023-05-22T23:41:07.811Z,3.55
2023-05-22T23:46:09.862Z,3.80
2023-05-22T23:51:14.403Z,3.38
2023-05-22T23:56:15.795Z,4.13
